createdAt,value
2018-04-14T00:01:56.728Z,85.30
2018-04-14T00:04:22.974Z,85.30
2018-04-14T00:06:49.310Z,85.50
2018-04-14T00:09:16.308Z,85.40
2018-04-14T00:11:42.582Z,85.40
2018-04-14T00:14:08.897Z,85.20
2018-04-14T00:16:35.157Z,85.20
2018-04-14T00:19:01.428Z,85.20
2018-04-14T00:21:27.627Z,85.20
2018-04-14T00:23:53.844Z,85.10
2018-04-14T00:26:20.095Z,85.10
2018-04-14T00:28:46.321Z,84.90
2018-04-14T00:31:12.599Z,84.70
2018-04-14T00:33:38.884Z,84.80
2018-04-14T00:36:05.159Z,84.90
2018-04-14T00:38:31.389Z,85.00
2018-04-14T00:40:57.792Z,85.10
2018-04-14T00:43:24.058Z,84.80
2018-04-14T00:45:50.279Z,85.00
2018-04-14T00:48:17.271Z,84.80
2018-04-14T00:50:43.531Z,84.80
2018-04-14T00:53:18.974Z,84.70
2018-04-14T00:55:45.190Z,84.70
2018-04-14T00:58:12.191Z,84.40
2018-04-14T01:00:38.457Z,84.40
2018-04-14T01:03:04.716Z,84.30
2018-04-14T01:05:31.749Z,84.60
2018-04-14T01:07:57.979Z,84.60
2018-04-14T01:10:24.199Z,84.40
2018-04-14T01:12:50.431Z,84.20
2018-04-14T01:15:16.691Z,84.50
2018-04-14T01:17:42.954Z,84.00
2018-04-14T01:20:09.162Z,84.30
2018-04-14T01:22:35.383Z,84.30
2018-04-14T01:25:01.626Z,84.10
2018-04-14T01:27:27.923Z,84.10
2018-04-14T01:29:54.879Z,83.50
2018-04-14T01:32:21.863Z,83.70
2018-04-14T01:34:48.065Z,83.70
2018-04-14T01:37:14.321Z,83.70
2018-04-14T01:39:40.626Z,83.40
2018-04-14T01:42:06.912Z,83.70
2018-04-14T01:44:33.237Z,83.70
2018-04-14T01:46:59.482Z,83.70
2018-04-14T01:49:25.716Z,83.60
2018-04-14T01:51:51.974Z,83.30
2018-04-14T01:54:18.976Z,83.60
2018-04-14T01:56:45.272Z,83.60
2018-04-14T01:59:11.563Z,83.60
2018-04-14T02:01:37.829Z,83.40
2018-04-14T02:04:04.883Z,83.50
2018-04-14T02:06:31.203Z,83.40
2018-04-14T02:08:57.519Z,83.60
2018-04-14T02:11:28.624Z,83.60
2018-04-14T02:13:54.859Z,83.70
2018-04-14T02:16:21.118Z,83.50
2018-04-14T02:18:47.327Z,83.10
2018-04-14T02:21:13.572Z,83.30
2018-04-14T02:23:39.832Z,82.80
2018-04-14T02:26:07.020Z,82.70
2018-04-14T02:28:33.308Z,82.60
2018-04-14T02:30:59.543Z,82.60
2018-04-14T02:33:25.765Z,82.60
2018-04-14T02:35:52.047Z,82.70
2018-04-14T02:38:18.346Z,81.90
2018-04-14T02:40:44.661Z,82.30
2018-04-14T02:43:11.010Z,82.70
2018-04-14T02:45:37.231Z,82.20
2018-04-14T02:48:03.536Z,82.00
2018-04-14T02:50:29.776Z,82.30
2018-04-14T02:52:56.051Z,82.20
2018-04-14T02:55:22.401Z,82.60
2018-04-14T02:57:48.664Z,82.10
2018-04-14T03:00:14.911Z,82.50
2018-04-14T03:02:41.179Z,82.40
2018-04-14T03:05:07.472Z,82.20
2018-04-14T03:07:33.732Z,82.60
2018-04-14T03:09:59.936Z,81.50
2018-04-14T03:12:26.211Z,81.30
2018-04-14T03:14:52.456Z,81.10
2018-04-14T03:17:19.426Z,82.00
2018-04-14T03:19:46.544Z,82.00
2018-04-14T03:22:12.781Z,82.00
2018-04-14T03:24:41.123Z,81.70
2018-04-14T03:27:07.351Z,81.40
2018-04-14T03:29:34.517Z,81.70
2018-04-14T03:32:01.480Z,81.60
2018-04-14T03:34:28.498Z,81.60
2018-04-14T03:36:54.790Z,81.60
2018-04-14T03:39:21.935Z,81.40
2018-04-14T03:41:48.150Z,81.40
2018-04-14T03:44:14.393Z,81.40
2018-04-14T03:46:40.609Z,81.90
2018-04-14T03:49:06.907Z,82.00
2018-04-14T03:51:34.055Z,82.30
2018-04-14T03:54:00.282Z,82.30
2018-04-14T03:56:26.571Z,82.10
2018-04-14T03:58:53.504Z,82.00
2018-04-14T04:01:19.719Z,82.00
2018-04-14T04:03:46.020Z,81.70
2018-04-14T04:06:12.282Z,81.50
2018-04-14T04:08:38.546Z,81.50
2018-04-14T04:11:04.780Z,81.40
2018-04-14T04:13:30.992Z,80.70
2018-04-14T04:15:57.260Z,81.80
2018-04-14T04:18:35.679Z,81.80
2018-04-14T04:21:16.742Z,81.50
2018-04-14T04:23:55.102Z,81.90
2018-04-14T04:26:21.375Z,82.30
2018-04-14T04:28:47.586Z,82.30
2018-04-14T04:31:13.809Z,82.10
2018-04-14T04:33:40.056Z,82.30
2018-04-14T04:36:06.297Z,82.00
2018-04-14T04:38:32.577Z,82.30
2018-04-14T04:40:58.826Z,81.90
2018-04-14T04:43:25.033Z,82.20
2018-04-14T04:45:51.278Z,82.20
2018-04-14T04:48:17.559Z,82.30
2018-04-14T04:50:44.551Z,82.50
2018-04-14T04:53:10.828Z,82.50
2018-04-14T04:55:37.055Z,82.50
2018-04-14T04:58:03.307Z,82.80
2018-04-14T05:00:29.588Z,82.70
2018-04-14T05:02:56.954Z,82.80
2018-04-14T05:05:23.242Z,82.70
2018-04-14T05:07:49.590Z,83.00
2018-04-14T05:10:16.680Z,82.80
2018-04-14T05:12:42.927Z,82.80
2018-04-14T05:15:09.199Z,82.80
2018-04-14T05:17:36.159Z,82.90
2018-04-14T05:20:04.071Z,82.90
2018-04-14T05:22:30.295Z,82.80
2018-04-14T05:24:58.250Z,82.90
2018-04-14T05:27:26.540Z,82.90
2018-04-14T05:29:52.803Z,83.00
2018-04-14T05:32:20.081Z,83.10
2018-04-14T05:34:46.481Z,83.10
2018-04-14T05:37:12.690Z,83.20
2018-04-14T05:39:39.998Z,83.60
2018-04-14T05:42:06.411Z,83.80
2018-04-14T05:44:32.670Z,84.20
2018-04-14T05:46:58.974Z,84.40
2018-04-14T05:49:26.500Z,84.60
2018-04-14T05:51:52.822Z,84.60
2018-04-14T05:54:19.180Z,84.70
2018-04-14T05:56:52.489Z,85.00
2018-04-14T05:59:19.435Z,85.00
2018-04-14T06:01:45.714Z,85.10
2018-04-14T06:04:11.975Z,85.50
2018-04-14T06:06:38.225Z,85.00
2018-04-14T06:09:05.391Z,85.20
2018-04-14T06:11:31.577Z,84.90
2018-04-14T06:13:59.307Z,84.40
2018-04-14T06:16:25.571Z,84.40
2018-04-14T06:18:51.834Z,84.60
2018-04-14T06:21:18.075Z,84.50
2018-04-14T06:23:44.308Z,84.70
2018-04-14T06:26:10.654Z,84.60
2018-04-14T06:28:36.968Z,84.70
2018-04-14T06:31:03.271Z,83.40
2018-04-14T06:33:29.544Z,83.20
2018-04-14T06:38:29.138Z,83.80
2018-04-14T06:40:55.395Z,83.90
2018-04-14T06:43:21.593Z,84.20
2018-04-14T06:45:47.852Z,84.10
2018-04-14T06:48:14.063Z,84.10
2018-04-14T06:50:40.270Z,83.30
2018-04-14T06:53:06.533Z,83.10
2018-04-14T06:55:32.879Z,83.10
2018-04-14T06:57:59.098Z,83.10
2018-04-14T07:00:26.395Z,83.20
2018-04-14T07:02:52.638Z,82.70
2018-04-14T07:05:18.884Z,82.10
2018-04-14T07:07:45.208Z,81.70
2018-04-14T07:10:11.744Z,81.10
2018-04-14T07:12:37.998Z,81.70
2018-04-14T07:15:04.358Z,82.30
2018-04-14T07:17:30.588Z,81.50
2018-04-14T07:19:56.839Z,80.70
2018-04-14T07:22:23.072Z,81.30
2018-04-14T07:24:50.045Z,79.60
2018-04-14T07:27:16.311Z,79.50
2018-04-14T07:29:42.523Z,78.70
2018-04-14T07:32:08.726Z,79.30
2018-04-14T07:34:34.971Z,79.90
2018-04-14T07:37:01.178Z,80.00
2018-04-14T07:39:27.444Z,78.20
2018-04-14T07:41:53.686Z,78.40
2018-04-14T07:44:19.920Z,79.30
2018-04-14T07:46:46.145Z,78.70
2018-04-14T07:49:12.419Z,78.20
2018-04-14T07:51:38.703Z,77.90
2018-04-14T07:54:04.883Z,76.90
2018-04-14T07:56:31.123Z,74.00
2018-04-14T07:58:57.384Z,73.90
2018-04-14T08:01:24.410Z,74.10
2018-04-14T08:03:51.218Z,73.60
2018-04-14T08:06:17.494Z,74.20
2018-04-14T08:08:43.672Z,73.90
2018-04-14T08:11:09.876Z,74.60
2018-04-14T08:13:36.134Z,71.10
2018-04-14T08:16:02.463Z,70.10
2018-04-14T08:18:35.987Z,71.60
2018-04-14T08:21:02.295Z,70.90
2018-04-14T08:23:28.620Z,71.90
2018-04-14T08:25:54.854Z,68.60
2018-04-14T08:28:21.176Z,66.40
2018-04-14T08:30:48.434Z,66.80
2018-04-14T08:33:14.760Z,65.30
2018-04-14T08:35:41.236Z,64.60
2018-04-14T08:38:07.567Z,65.80
2018-04-14T08:40:34.807Z,67.60
2018-04-14T08:43:01.429Z,65.90
2018-04-14T08:45:28.592Z,61.80
2018-04-14T08:47:56.720Z,59.50
2018-04-14T08:50:23.200Z,62.10
2018-04-14T08:52:49.528Z,62.70
2018-04-14T08:55:15.762Z,59.70
2018-04-14T08:57:42.102Z,61.30
2018-04-14T09:00:09.396Z,59.80
2018-04-14T09:02:35.655Z,58.50
2018-04-14T09:05:02.064Z,58.60
2018-04-14T09:07:28.306Z,56.40
2018-04-14T09:09:54.589Z,58.60
2018-04-14T09:12:20.855Z,56.00
2018-04-14T09:14:47.051Z,56.00
2018-04-14T09:17:13.291Z,56.10
2018-04-14T09:19:39.507Z,56.40
2018-04-14T09:22:05.725Z,54.70
2018-04-14T09:24:31.968Z,56.00
2018-04-14T09:26:58.197Z,55.90
2018-04-14T09:29:24.452Z,56.40
2018-04-14T09:31:50.661Z,54.80
2018-04-14T09:34:17.639Z,56.10
2018-04-14T09:36:43.869Z,56.20
2018-04-14T09:39:10.827Z,54.20
2018-04-14T09:41:37.835Z,52.40
2018-04-14T09:44:04.222Z,52.40
2018-04-14T09:46:30.789Z,54.00
2018-04-14T09:48:57.053Z,53.60
2018-04-14T09:51:23.266Z,51.80
2018-04-14T09:53:49.494Z,52.30
2018-04-14T09:56:15.845Z,51.50
2018-04-14T09:58:42.041Z,50.80
2018-04-14T10:01:14.460Z,49.30
2018-04-14T10:03:46.772Z,50.50
2018-04-14T10:06:13.018Z,49.90
2018-04-14T10:08:39.771Z,50.50
2018-04-14T10:11:06.080Z,48.60
2018-04-14T10:13:32.363Z,48.20
2018-04-14T10:15:58.609Z,48.90
2018-04-14T10:18:24.825Z,48.00
2018-04-14T10:20:51.061Z,48.20
2018-04-14T10:23:18.027Z,46.50
2018-04-14T10:25:45.038Z,47.10
2018-04-14T10:28:11.271Z,47.10
2018-04-14T10:30:37.538Z,46.70
2018-04-14T10:33:03.752Z,46.80
2018-04-14T10:35:30.047Z,46.30
2018-04-14T10:37:56.375Z,46.40
2018-04-14T10:40:23.687Z,43.90
2018-04-14T10:42:49.898Z,45.60
2018-04-14T10:45:16.850Z,43.60
2018-04-14T10:47:44.083Z,43.60
2018-04-14T10:50:10.390Z,43.10
2018-04-14T10:52:37.682Z,43.20
2018-04-14T10:55:04.503Z,43.20
2018-04-14T10:57:31.019Z,43.80
2018-04-14T10:59:57.496Z,43.00
2018-04-14T11:02:24.139Z,42.40
2018-04-14T11:04:53.911Z,43.90
2018-04-14T11:10:20.379Z,42.70
2018-04-14T11:12:46.592Z,43.90
2018-04-14T11:15:15.049Z,45.10
2018-04-14T11:23:48.964Z,43.50
2018-04-14T11:28:47.624Z,41.40
2018-04-14T11:31:16.160Z,41.00
2018-04-14T11:33:44.636Z,37.50
2018-04-14T11:36:13.075Z,37.80
2018-04-14T11:41:13.772Z,38.30
2018-04-14T11:49:23.782Z,35.20
2018-04-14T11:51:53.895Z,32.20
2018-04-14T11:54:20.366Z,34.00
2018-04-14T11:56:53.093Z,32.50
2018-04-14T11:59:23.361Z,32.20
2018-04-14T12:01:54.239Z,32.40
2018-04-14T12:04:21.913Z,32.60
2018-04-14T12:07:06.167Z,32.50
2018-04-14T12:09:38.699Z,31.20
2018-04-14T12:12:07.865Z,31.80
2018-04-14T12:15:05.258Z,31.10
2018-04-14T12:18:36.881Z,30.40
2018-04-14T12:21:03.456Z,30.60
2018-04-14T12:23:32.829Z,28.80
2018-04-14T12:26:07.983Z,27.70
2018-04-14T12:28:34.351Z,27.50
2018-04-14T12:31:00.567Z,27.00
2018-04-14T12:33:26.811Z,27.30
2018-04-14T12:35:53.060Z,27.80
2018-04-14T12:38:19.288Z,27.00
2018-04-14T12:40:45.532Z,27.80
2018-04-14T12:43:11.758Z,27.20
2018-04-14T12:45:38.003Z,27.30
2018-04-14T12:48:04.224Z,25.70
2018-04-14T12:50:31.212Z,25.90
2018-04-14T12:52:57.479Z,25.90
2018-04-14T12:55:23.718Z,25.20
2018-04-14T12:57:49.944Z,25.30
2018-04-14T13:00:16.190Z,25.70
2018-04-14T13:02:42.431Z,25.10
2018-04-14T13:05:08.757Z,24.00
2018-04-14T13:07:35.001Z,23.00
2018-04-14T13:10:01.276Z,23.60
2018-04-14T13:12:27.494Z,22.70
2018-04-14T13:14:54.771Z,22.10
2018-04-14T13:17:21.004Z,22.80
2018-04-14T13:19:47.207Z,22.30
2018-04-14T13:22:13.516Z,22.40
2018-04-14T13:24:39.770Z,23.80
2018-04-14T13:27:06.020Z,22.40
2018-04-14T13:29:32.319Z,22.60
2018-04-14T13:31:58.648Z,22.20
2018-04-14T13:34:24.942Z,21.90
2018-04-14T13:36:51.429Z,22.30
2018-04-14T13:39:17.783Z,22.10
2018-04-14T13:41:44.035Z,22.60
2018-04-14T13:44:12.134Z,22.20
2018-04-14T13:46:40.230Z,22.60
2018-04-14T13:49:07.221Z,21.50
2018-04-14T13:51:34.195Z,22.70
2018-04-14T13:54:01.112Z,22.60
2018-04-14T13:56:27.600Z,22.10
2018-04-14T13:58:54.641Z,22.90
2018-04-14T14:01:20.933Z,22.90
2018-04-14T14:03:47.330Z,21.70
2018-04-14T14:06:13.579Z,23.00
2018-04-14T14:08:40.036Z,22.70
2018-04-14T14:11:06.355Z,22.90
2018-04-14T14:13:32.623Z,23.00
2018-04-14T14:15:58.896Z,21.30
2018-04-14T14:18:25.291Z,22.10
2018-04-14T14:20:52.263Z,21.10
2018-04-14T14:23:18.545Z,21.20
2018-04-14T14:25:44.775Z,21.60
2018-04-14T14:28:13.387Z,21.30
2018-04-14T14:30:39.699Z,22.20
2018-04-14T14:33:06.179Z,22.30
2018-04-14T14:35:33.500Z,21.40
2018-04-14T14:38:00.904Z,21.40
2018-04-14T14:40:27.153Z,21.20
2018-04-14T14:42:53.494Z,21.50
2018-04-14T14:45:19.836Z,20.90
2018-04-14T14:47:47.174Z,20.80
2018-04-14T14:50:20.195Z,22.80
2018-04-14T14:52:47.515Z,22.80
2018-04-14T14:55:13.789Z,22.70
2018-04-14T14:57:40.064Z,22.40
2018-04-14T15:00:06.274Z,23.50
2018-04-14T15:02:32.508Z,23.10
2018-04-14T15:04:58.910Z,22.30
2018-04-14T15:07:25.362Z,23.50
2018-04-14T15:09:51.633Z,23.50
2018-04-14T15:12:17.925Z,23.30
2018-04-14T15:14:46.815Z,23.30
2018-04-14T15:17:13.509Z,23.60
2018-04-14T15:19:40.512Z,22.90
2018-04-14T15:22:06.864Z,22.80
2018-04-14T15:24:33.187Z,22.50
2018-04-14T15:26:59.435Z,22.30
2018-04-14T15:29:36.692Z,21.90
2018-04-14T15:32:03.269Z,21.90
2018-04-14T15:34:29.635Z,22.70
2018-04-14T15:41:41.603Z,22.10
2018-04-14T15:44:10.318Z,22.40
2018-04-14T15:46:37.032Z,22.20
2018-04-14T15:49:03.378Z,22.90
2018-04-14T15:51:29.691Z,22.10
2018-04-14T15:53:58.994Z,23.40
2018-04-14T15:56:25.532Z,23.00
2018-04-14T15:58:58.462Z,22.80
2018-04-14T16:01:42.100Z,24.40
2018-04-14T16:04:14.530Z,23.80
2018-04-14T16:06:42.879Z,24.30
2018-04-14T16:09:12.891Z,23.80
2018-04-14T16:11:43.016Z,24.20
2018-04-14T16:14:13.005Z,24.20
2018-04-14T16:16:41.674Z,24.10
2018-04-14T16:19:12.793Z,23.90
2018-04-14T16:21:42.089Z,24.10
2018-04-14T16:24:12.237Z,24.60
2018-04-14T16:26:42.328Z,24.40
2018-04-14T16:29:12.731Z,26.20
2018-04-14T16:31:39.131Z,25.50
2018-04-14T16:34:05.452Z,26.10
2018-04-14T16:36:42.343Z,25.40
2018-04-14T16:39:08.759Z,25.50
2018-04-14T16:41:35.358Z,25.50
2018-04-14T16:44:01.762Z,26.20
2018-04-14T16:46:28.294Z,25.90
2018-04-14T16:48:54.609Z,26.20
2018-04-14T16:51:20.917Z,26.50
2018-04-14T16:53:47.214Z,27.00
2018-04-14T16:56:13.536Z,26.70
2018-04-14T16:58:39.788Z,27.50
2018-04-14T17:01:06.133Z,26.20
2018-04-14T17:03:32.451Z,26.50
2018-04-14T17:05:58.753Z,26.80
2018-04-14T17:08:25.202Z,26.80
2018-04-14T17:10:51.607Z,26.70
2018-04-14T17:13:17.956Z,27.10
2018-04-14T17:15:44.319Z,27.80
2018-04-14T17:18:10.641Z,28.00
2018-04-14T17:20:36.867Z,27.60
2018-04-14T17:23:03.153Z,27.90
2018-04-14T17:25:29.625Z,28.80
2018-04-14T17:27:56.673Z,29.40
2018-04-14T17:30:23.183Z,29.40
2018-04-14T17:32:50.032Z,29.40
2018-04-14T17:35:16.407Z,29.30
2018-04-14T17:37:42.705Z,29.40
2018-04-14T17:40:09.042Z,29.60
2018-04-14T17:42:35.364Z,29.50
2018-04-14T17:45:01.755Z,30.80
2018-04-14T17:47:28.041Z,30.70
2018-04-14T17:49:54.379Z,34.90
2018-04-14T17:52:20.772Z,32.90
2018-04-14T17:54:47.039Z,34.80
2018-04-14T17:57:13.404Z,36.30
2018-04-14T17:59:39.764Z,36.30
2018-04-14T18:02:06.160Z,36.80
2018-04-14T18:04:32.393Z,36.20
2018-04-14T18:06:58.671Z,36.70
2018-04-14T18:09:24.986Z,36.80
2018-04-14T18:11:53.440Z,36.50
2018-04-14T18:14:20.815Z,36.50
2018-04-14T18:16:48.236Z,37.20
2018-04-14T18:19:16.616Z,37.90
2018-04-14T18:21:43.007Z,39.50
2018-04-14T18:24:09.305Z,39.80
2018-04-14T18:26:35.876Z,38.50
2018-04-14T18:29:02.165Z,38.20
2018-04-14T18:31:28.518Z,40.30
2018-04-14T18:33:55.276Z,40.90
2018-04-14T18:36:21.567Z,39.40
2018-04-14T18:38:47.860Z,39.30
2018-04-14T18:41:14.238Z,40.10
2018-04-14T18:43:40.457Z,41.60
2018-04-14T18:46:06.757Z,40.10
2018-04-14T18:48:42.984Z,41.20
2018-04-14T18:51:09.234Z,42.10
2018-04-14T18:53:35.611Z,42.40
2018-04-14T18:56:01.855Z,43.80
2018-04-14T18:58:28.104Z,45.90
2018-04-14T19:00:57.167Z,44.80
2018-04-14T19:03:24.288Z,44.10
2018-04-14T19:05:50.564Z,44.10
2018-04-14T19:08:17.024Z,44.30
2018-04-14T19:10:43.330Z,45.20
2018-04-14T19:13:12.510Z,45.80
2018-04-14T19:15:38.750Z,46.30
2018-04-14T19:18:06.979Z,48.70
2018-04-14T19:20:43.219Z,48.80
2018-04-14T19:23:09.509Z,48.50
2018-04-14T19:25:42.159Z,49.20
2018-04-14T19:28:09.300Z,49.20
2018-04-14T19:30:41.028Z,49.10
2018-04-14T19:33:14.756Z,49.40
2018-04-14T19:35:43.788Z,50.30
2018-04-14T19:38:13.063Z,50.90
2018-04-14T19:40:41.340Z,50.70
2018-04-14T19:43:07.796Z,50.80
2018-04-14T19:51:42.521Z,52.40
2018-04-14T19:54:13.218Z,52.40
2018-04-14T19:56:44.190Z,52.30
2018-04-14T19:59:12.803Z,52.30
2018-04-14T20:01:42.805Z,53.20
2018-04-14T20:28:42.990Z,54.60
2018-04-14T20:31:14.681Z,54.70
2018-04-14T20:33:42.414Z,55.40
2018-04-14T20:36:11.255Z,55.40
2018-04-14T20:41:42.596Z,55.80
2018-04-14T20:44:14.859Z,55.80
2018-04-14T20:46:41.194Z,55.40
2018-04-14T20:49:07.550Z,55.30
2018-04-14T20:51:36.012Z,55.50
2018-04-14T20:54:03.310Z,55.80
2018-04-14T20:56:32.929Z,55.80
2018-04-14T20:58:59.303Z,55.80
2018-04-14T21:01:25.613Z,55.70
2018-04-14T21:03:57.073Z,56.50
2018-04-14T21:06:25.237Z,56.90
2018-04-14T21:08:51.521Z,56.90
2018-04-14T21:11:17.864Z,57.10
2018-04-14T21:13:44.859Z,57.50
2018-04-14T21:16:11.125Z,57.50
2018-04-14T21:18:39.135Z,58.20
2018-04-14T21:21:13.201Z,58.60
2018-04-14T21:23:39.709Z,58.60
2018-04-14T21:26:05.988Z,58.40
2018-04-14T21:28:32.263Z,58.70
2018-04-14T21:30:58.507Z,58.50
2018-04-14T21:33:24.733Z,57.70
2018-04-14T21:35:50.999Z,57.80
2018-04-14T21:38:17.282Z,58.50
2018-04-14T21:40:43.591Z,59.10
2018-04-14T21:43:09.972Z,58.90
2018-04-14T21:45:38.196Z,58.40
2018-04-14T21:48:04.551Z,58.50
2018-04-14T21:50:30.844Z,59.00
2018-04-14T21:52:57.242Z,59.70
2018-04-14T21:55:23.592Z,59.20
2018-04-14T21:57:50.884Z,58.90
2018-04-14T22:00:17.491Z,58.70
2018-04-14T22:02:43.823Z,59.10
2018-04-14T22:05:10.329Z,59.20
2018-04-14T22:07:36.635Z,58.60
2018-04-14T22:10:04.018Z,57.90
2018-04-14T22:12:30.606Z,58.80
2018-04-14T22:14:57.209Z,59.20
2018-04-14T22:17:23.889Z,58.80
2018-04-14T22:19:50.339Z,58.50
2018-04-14T22:22:16.593Z,59.10
2018-04-14T22:24:43.013Z,58.90
2018-04-14T22:27:09.410Z,58.80
2018-04-14T22:29:35.797Z,59.20
2018-04-14T22:32:03.178Z,59.50
2018-04-14T22:34:29.574Z,59.50
2018-04-14T22:36:55.923Z,58.80
2018-04-14T22:39:22.442Z,58.40
2018-04-14T22:41:49.498Z,59.30
2018-04-14T22:44:15.828Z,59.60
2018-04-14T22:46:42.093Z,59.60
2018-04-14T22:49:08.405Z,60.00
2018-04-14T22:51:35.547Z,60.30
2018-04-14T22:54:01.796Z,60.30
2018-04-14T22:56:28.819Z,60.10
2018-04-14T22:58:55.139Z,60.20
2018-04-14T23:01:21.347Z,60.50
2018-04-14T23:03:47.632Z,60.40
2018-04-14T23:06:13.892Z,60.20
2018-04-14T23:08:40.188Z,60.20
2018-04-14T23:11:06.384Z,59.70
2018-04-14T23:13:32.613Z,60.00
2018-04-14T23:15:58.871Z,60.00
2018-04-14T23:18:25.119Z,60.40
2018-04-14T23:20:52.155Z,59.50
2018-04-14T23:23:18.368Z,59.40
2018-04-14T23:25:44.608Z,59.60
2018-04-14T23:28:11.055Z,59.60
2018-04-14T23:30:37.352Z,59.80
2018-04-14T23:33:04.404Z,60.30
2018-04-14T23:35:30.676Z,60.30
2018-04-14T23:37:57.049Z,60.10
2018-04-14T23:40:23.321Z,60.40
2018-04-14T23:42:49.732Z,60.10
2018-04-14T23:45:16.016Z,60.30
2018-04-14T23:47:42.293Z,59.60
2018-04-14T23:50:08.529Z,59.70
2018-04-14T23:52:35.507Z,60.40
2018-04-14T23:55:01.771Z,60.40
2018-04-14T23:57:27.983Z,61.10
2018-04-14T23:59:54.952Z,60.50
